Time;durP1;ratioP1;P1;durP2;ratioP2;P2;SDS_P1;SDS_P2;PMS_P1;PMS_P2;Temp;Humidity;BMP_temperature;BMP_pressure;BME280_temperature;BME280_humidity;BME280_pressure;Samples;Min_cycle;Max_cycle;Signal;HPM_P1;HPM_P2
2022/03/06 00:01:17;;;;;;;25.08;11.65;;;;;;;1.17;48.77;99916.80;1798875;80;21456;-41
2022/03/06 00:03:44;;;;;;;27.65;11.22;;;;;;;1.19;48.67;99918.49;1798845;80;20986;-41
2022/03/06 00:06:13;;;;;;;22.07;10.33;;;;;;;1.19;48.06;99920.23;1799046;80;20986;-41
2022/03/06 00:08:40;;;;;;;20.02;9.50;;;;;;;1.22;48.24;99922.37;1798950;80;21217;-41
2022/03/06 00:11:06;;;;;;;20.43;9.08;;;;;;;1.27;48.07;99924.91;1798822;80;21030;-41
2022/03/06 00:13:33;;;;;;;22.45;9.20;;;;;;;1.19;48.53;99922.83;1798864;80;21519;-41
2022/03/06 00:16:00;;;;;;;22.00;10.18;;;;;;;1.17;48.32;99921.98;1798440;80;21002;-41
2022/03/06 00:18:26;;;;;;;19.17;9.98;;;;;;;1.13;47.84;99922.44;1797749;80;21695;-39
2022/03/06 00:20:53;;;;;;;21.57;9.95;;;;;;;1.09;48.07;99916.41;1798392;80;21060;-41
2022/03/06 00:23:20;;;;;;;19.12;9.55;;;;;;;1.04;48.19;99914.72;1799014;80;21029;-39
2022/03/06 00:25:46;;;;;;;23.10;9.13;;;;;;;0.90;48.07;99913.06;1798827;80;21468;-39
2022/03/06 00:28:12;;;;;;;24.77;9.83;;;;;;;0.97;48.52;99916.48;1765815;80;20979;-39
2022/03/06 00:30:38;;;;;;;21.80;9.38;;;;;;;0.92;48.59;99913.05;1804679;79;21534;-39
2022/03/06 00:33:06;;;;;;;19.37;8.88;;;;;;;0.91;48.55;99916.50;1804645;79;20997;-39
2022/03/06 00:35:32;;;;;;;19.90;8.83;;;;;;;0.94;48.50;99915.20;1804831;79;20966;-41
2022/03/06 00:37:58;;;;;;;21.93;9.05;;;;;;;0.86;48.04;99913.10;1804660;79;21488;-41
2022/03/06 00:40:25;;;;;;;18.30;8.50;;;;;;;0.87;47.94;99912.22;1804616;79;21014;-41
2022/03/06 00:42:52;;;;;;;15.90;8.03;;;;;;;0.92;48.13;99907.88;1804943;79;21476;-38
2022/03/06 00:45:18;;;;;;;20.85;9.58;;;;;;;0.93;48.33;99915.64;1804792;79;20990;-41
2022/03/06 00:47:44;;;;;;;20.77;8.73;;;;;;;0.92;48.05;99919.09;1804810;79;21030;-41
2022/03/06 00:50:10;;;;;;;16.37;8.05;;;;;;;0.93;48.35;99914.79;1804658;79;20998;-39
2022/03/06 00:52:39;;;;;;;23.42;9.85;;;;;;;1.02;48.37;99916.44;1804736;79;20974;-39
2022/03/06 00:55:06;;;;;;;15.83;7.95;;;;;;;1.02;48.12;99913.44;1804689;79;21518;-39
2022/03/06 00:57:32;;;;;;;17.57;8.05;;;;;;;1.04;48.09;99910.39;1804727;79;20994;-40
2022/03/06 00:59:58;;;;;;;16.57;7.35;;;;;;;1.04;48.21;99907.80;1804654;79;21017;-39
2022/03/06 01:02:23;;;;;;;23.47;9.73;;;;;;;0.94;47.67;99910.88;1804645;79;21034;-39
2022/03/06 01:04:49;;;;;;;19.98;8.23;;;;;;;0.96;47.70;99913.45;1804689;79;20982;-39
2022/03/06 01:07:15;;;;;;;14.05;7.85;;;;;;;0.97;48.21;99908.71;1804632;79;21020;-39
2022/03/06 01:09:41;;;;;;;16.62;6.85;;;;;;;0.99;48.22;99903.53;1804592;79;21094;-42
2022/03/06 01:12:07;;;;;;;15.25;7.75;;;;;;;0.97;47.77;99900.95;1804624;79;21049;-40
2022/03/06 01:14:33;;;;;;;14.20;7.60;;;;;;;1.03;48.09;99906.52;1804618;79;21029;-40
2022/03/06 01:16:59;;;;;;;18.82;8.03;;;;;;;0.99;47.83;99895.31;1804702;79;21576;-40
2022/03/06 01:19:25;;;;;;;11.95;6.45;;;;;;;0.99;48.09;99897.05;1804730;79;21519;-40
2022/03/06 01:21:51;;;;;;;17.02;8.13;;;;;;;1.07;48.21;99895.25;1804614;79;20994;-40
2022/03/06 01:24:17;;;;;;;13.48;6.30;;;;;;;1.07;48.10;99897.84;1804670;79;21041;-40
2022/03/06 01:26:43;;;;;;;12.50;6.50;;;;;;;1.04;47.72;99891.41;1804594;79;21046;-40
2022/03/06 01:29:09;;;;;;;13.38;7.05;;;;;;;1.01;47.56;99888.84;1805418;79;21014;-40
2022/03/06 01:31:35;;;;;;;12.18;6.33;;;;;;;1.01;47.54;99887.09;1808002;79;20986;-40
2022/03/06 01:34:03;;;;;;;13.70;6.70;;;;;;;1.00;47.94;99894.87;1808021;79;20970;-40
2022/03/06 01:36:30;;;;;;;14.13;7.08;;;;;;;1.00;47.70;99891.87;1807853;79;20955;-40
2022/03/06 01:38:56;;;;;;;12.63;6.87;;;;;;;0.96;47.66;99887.55;1808099;79;21534;-40
2022/03/06 01:41:22;;;;;;;20.65;6.50;;;;;;;1.07;47.77;99895.25;1808052;79;21024;-41
2022/03/06 01:43:48;;;;;;;12.20;6.45;;;;;;;1.06;47.56;99890.52;1808032;79;21359;-40
2022/03/06 01:46:14;;;;;;;12.73;5.85;;;;;;;1.02;47.06;99891.83;1808024;79;20994;-40
2022/03/06 01:48:40;;;;;;;16.62;6.28;;;;;;;0.94;47.26;99888.01;1807999;79;20966;-40
2022/03/06 01:51:06;;;;;;;10.23;5.25;;;;;;;0.87;47.25;99887.62;1808019;79;21515;-41
2022/03/06 01:53:31;;;;;;;8.55;5.35;;;;;;;0.75;46.58;99888.56;1808113;79;20974;-40
2022/03/06 01:55:57;;;;;;;18.65;6.37;;;;;;;0.75;47.02;99887.27;1807997;79;20979;-40
2022/03/06 01:58:23;;;;;;;10.15;5.28;;;;;;;0.81;46.87;99888.52;1807979;79;20971;-40
2022/03/06 02:00:49;;;;;;;11.48;5.62;;;;;;;0.86;47.55;99891.95;1808028;79;20986;-40
2022/03/06 02:03:18;;;;;;;13.68;5.58;;;;;;;0.92;47.27;99894.93;1808067;79;21463;-40
2022/03/06 02:05:45;;;;;;;12.80;6.10;;;;;;;0.86;46.78;99891.09;1806506;79;21428;-40
2022/03/06 02:08:12;;;;;;;12.50;5.90;;;;;;;0.91;47.05;99888.90;1808259;79;21049;-40
2022/03/06 02:10:38;;;;;;;12.73;5.87;;;;;;;0.91;46.76;99888.02;1808082;79;21002;-40
2022/03/06 02:13:05;;;;;;;16.05;6.50;;;;;;;0.89;46.84;99882.88;1807981;79;21513;-40
2022/03/06 02:15:31;;;;;;;13.75;6.20;;;;;;;0.86;47.02;99884.63;1808161;79;21025;-40
2022/03/06 02:17:58;;;;;;;8.58;5.42;;;;;;;0.86;46.58;99882.03;1808341;79;21458;-40
2022/03/06 02:20:26;;;;;;;12.73;5.92;;;;;;;0.81;46.81;99878.16;1808035;79;20982;-40
2022/03/06 02:22:55;;;;;;;11.78;5.30;;;;;;;0.86;46.94;99877.70;1808023;79;20994;-40
2022/03/06 02:25:25;;;;;;;11.05;5.65;;;;;;;0.86;46.76;99876.86;1808056;79;20970;-40
2022/03/06 02:27:54;;;;;;;10.50;5.08;;;;;;;0.79;46.18;99882.94;1803361;79;21566;-40
2022/03/06 02:30:23;;;;;;;10.78;5.33;;;;;;;0.75;46.83;99875.18;1799161;79;21015;-40
2022/03/06 02:32:51;;;;;;;10.43;5.50;;;;;;;0.77;46.59;99872.59;1794759;79;21018;-41
2022/03/06 02:35:18;;;;;;;10.03;5.33;;;;;;;0.73;47.00;99867.86;1794825;79;21002;-41
2022/03/06 02:37:45;;;;;;;10.98;5.40;;;;;;;0.81;47.04;99869.55;1794890;79;20995;-40
2022/03/06 02:40:14;;;;;;;14.07;6.60;;;;;;;0.79;46.64;99871.29;1795062;80;20982;-40
2022/03/06 02:42:43;;;;;;;11.97;6.12;;;;;;;0.80;46.92;99867.81;1794920;79;21045;-40
2022/03/06 02:45:13;;;;;;;9.95;5.37;;;;;;;0.79;46.87;99870.84;1794967;80;20991;-40
2022/03/06 02:47:40;;;;;;;10.25;5.47;;;;;;;0.79;47.11;99868.70;1794134;80;21006;-40
2022/03/06 02:50:10;;;;;;;15.23;5.58;;;;;;;0.83;47.07;99869.09;1795107;80;21436;-40
2022/03/06 02:52:36;;;;;;;10.18;5.15;;;;;;;0.80;47.01;99866.52;1794929;80;21030;-40
2022/03/06 02:55:04;;;;;;;10.43;4.95;;;;;;;0.80;46.72;99869.11;1794978;79;20991;-39
2022/03/06 02:57:29;;;;;;;7.42;4.75;;;;;;;0.82;47.04;99876.42;1794899;80;21452;-39
2022/03/06 02:59:55;;;;;;;8.53;4.42;;;;;;;0.80;46.83;99875.58;1795013;80;20967;-39
2022/03/06 03:02:21;;;;;;;8.60;5.30;;;;;;;0.71;46.74;99869.60;1795186;79;21033;-40
2022/03/06 03:04:47;;;;;;;8.43;4.72;;;;;;;0.62;46.89;99875.25;1794897;80;20998;-39
2022/03/06 03:07:13;;;;;;;8.58;4.60;;;;;;;0.67;46.91;99873.05;1794917;79;21030;-40
2022/03/06 03:09:39;;;;;;;8.45;4.50;;;;;;;0.75;47.34;99868.70;1795127;79;21516;-39
2022/03/06 03:12:06;;;;;;;8.70;4.65;;;;;;;0.71;46.41;99873.48;1766041;80;20955;-40
2022/03/06 03:14:33;;;;;;;8.53;4.20;;;;;;;0.58;46.68;99878.28;1795103;79;20959;-40
2022/03/06 03:17:01;;;;;;;7.80;4.97;;;;;;;0.62;46.59;99876.54;1795110;80;20983;-40
2022/03/06 03:19:28;;;;;;;7.97;4.42;;;;;;;0.67;47.11;99879.52;1794927;79;21049;-40
2022/03/06 03:21:55;;;;;;;8.93;4.67;;;;;;;0.70;46.84;99869.16;1794927;79;20990;-40
2022/03/06 03:24:22;;;;;;;10.48;4.55;;;;;;;0.79;47.02;99879.05;1795167;79;21035;-40
2022/03/06 03:26:48;;;;;;;10.03;5.17;;;;;;;0.75;46.72;99875.18;1795011;80;21480;-40
2022/03/06 03:29:14;;;;;;;9.90;5.28;;;;;;;0.78;47.06;99870.84;1796124;79;20990;-40
2022/03/06 03:31:40;;;;;;;11.90;6.08;;;;;;;0.73;46.87;99873.04;1808180;79;20986;-39
2022/03/06 03:34:05;;;;;;;8.03;4.53;;;;;;;0.70;46.78;99869.16;1808080;79;21429;-40
2022/03/06 03:36:31;;;;;;;12.15;4.15;;;;;;;0.71;46.79;99872.19;1808309;79;20982;-40
2022/03/06 03:38:57;;;;;;;11.12;4.28;;;;;;;0.72;46.66;99875.19;1808093;79;21029;-40
2022/03/06 03:41:24;;;;;;;6.80;4.28;;;;;;;0.72;46.69;99876.92;1808101;79;20987;-40
2022/03/06 03:43:51;;;;;;;9.23;4.05;;;;;;;0.75;46.82;99880.36;1808148;79;20963;-40
2022/03/06 03:46:18;;;;;;;11.40;4.70;;;;;;;0.67;46.67;99882.55;1808437;79;20990;-40
2022/03/06 03:48:44;;;;;;;8.83;3.80;;;;;;;0.68;46.77;99881.26;1808300;79;21188;-40
2022/03/06 03:51:10;;;;;;;5.55;3.47;;;;;;;0.71;46.78;99878.66;1808126;79;20990;-40
2022/03/06 03:53:36;;;;;;;10.23;4.22;;;;;;;0.72;46.83;99877.77;1808098;79;21510;-40
2022/03/06 03:56:04;;;;;;;5.37;3.77;;;;;;;0.79;46.93;99883.79;1808051;79;21021;-40
2022/03/06 03:58:30;;;;;;;9.90;4.42;;;;;;;0.76;46.54;99879.91;1808008;79;21041;-39
2022/03/06 04:00:56;;;;;;;7.50;4.62;;;;;;;0.78;46.40;99879.91;1808109;79;21014;-39
2022/03/06 04:03:23;;;;;;;7.17;4.67;;;;;;;0.77;46.64;99875.17;1808092;79;21452;-40
2022/03/06 04:05:49;;;;;;;6.60;4.72;;;;;;;0.79;47.00;99871.29;1808320;79;20984;-40
2022/03/06 04:08:15;;;;;;;9.78;5.15;;;;;;;0.73;46.71;99878.22;1808282;79;20986;-40
2022/03/06 04:10:41;;;;;;;9.93;3.98;;;;;;;0.76;46.86;99878.62;1808042;79;20982;-40
2022/03/06 04:13:07;;;;;;;8.40;4.30;;;;;;;0.74;46.65;99872.59;1808178;79;21016;-40
2022/03/06 04:15:33;;;;;;;10.10;4.60;;;;;;;0.69;46.68;99877.81;1808127;79;21448;-40
2022/03/06 04:17:59;;;;;;;7.05;4.22;;;;;;;0.67;46.50;99878.67;1808338;79;20986;-40
2022/03/06 04:20:25;;;;;;;7.53;4.22;;;;;;;0.66;46.25;99880.86;1808154;79;20990;-40
2022/03/06 04:22:51;;;;;;;8.05;4.20;;;;;;;0.63;46.44;99877.83;1808082;79;20993;-40
2022/03/06 04:25:17;;;;;;;7.97;4.22;;;;;;;0.67;46.40;99883.85;1808022;79;21487;-40
2022/03/06 04:27:43;;;;;;;7.30;4.15;;;;;;;0.65;46.65;99881.27;1808024;79;20958;-40
2022/03/06 04:30:10;;;;;;;10.10;4.65;;;;;;;0.66;46.42;99880.86;1804583;79;21018;-40
2022/03/06 04:32:37;;;;;;;11.50;5.05;;;;;;;0.69;46.38;99876.52;1798663;80;21395;-40
2022/03/06 04:35:05;;;;;;;10.72;4.42;;;;;;;0.69;46.75;99876.52;1798858;80;21054;-40
2022/03/06 04:37:31;;;;;;;7.62;4.80;;;;;;;0.71;46.93;99880.37;1798707;79;21453;-41
2022/03/06 04:39:57;;;;;;;8.78;5.00;;;;;;;0.66;46.34;99885.59;1798719;80;21021;-40
2022/03/06 04:42:23;;;;;;;7.50;5.10;;;;;;;0.66;46.63;99886.88;1798812;80;20994;-40
2022/03/06 04:44:49;;;;;;;11.97;5.15;;;;;;;0.65;46.61;99877.38;1798869;79;21440;-40
2022/03/06 04:47:16;;;;;;;9.15;5.22;;;;;;;0.67;46.64;99878.67;1798757;80;21026;-40
2022/03/06 04:49:47;;;;;;;8.33;5.03;;;;;;;0.68;46.83;99874.78;1798823;80;21499;-41
2022/03/06 04:52:10;;;;;;;10.20;5.20;;;;;;;0.67;46.70;99876.94;1797199;80;21042;-40
2022/03/06 04:54:36;;;;;;;9.95;5.40;;;;;;;0.68;46.71;99879.11;1798608;80;21062;-40
2022/03/06 04:57:03;;;;;;;8.18;4.80;;;;;;;0.74;46.80;99883.80;1798695;80;20983;-40
2022/03/06 04:59:29;;;;;;;9.48;5.28;;;;;;;0.69;46.69;99882.11;1798716;80;21030;-40
2022/03/06 05:01:55;;;;;;;10.50;6.03;;;;;;;0.61;46.55;99878.28;1798564;80;21037;-40
2022/03/06 05:04:21;;;;;;;9.93;5.67;;;;;;;0.62;46.95;99875.25;1798979;80;21029;-39
2022/03/06 05:06:47;;;;;;;14.35;6.90;;;;;;;0.62;46.99;99877.42;1798695;80;21598;-40
2022/03/06 05:09:13;;;;;;;16.42;7.05;;;;;;;0.63;47.01;99872.66;1798636;80;21006;-40
2022/03/06 05:11:39;;;;;;;12.40;5.92;;;;;;;0.66;46.86;99880.86;1798712;80;20951;-40
2022/03/06 05:14:05;;;;;;;11.93;6.30;;;;;;;0.68;46.87;99879.11;1798820;80;20994;-40
2022/03/06 05:16:30;;;;;;;11.43;5.47;;;;;;;0.64;46.72;99874.39;1798809;80;21110;-40
2022/03/06 05:18:56;;;;;;;8.90;5.67;;;;;;;0.67;46.98;99877.38;1798804;80;21484;-41
2022/03/06 05:21:23;;;;;;;11.20;5.83;;;;;;;0.70;46.87;99870.45;1798699;79;20954;-43
2022/03/06 05:23:49;;;;;;;12.40;6.00;;;;;;;0.66;46.80;99872.64;1798742;80;20979;-40
2022/03/06 05:26:15;;;;;;;8.70;5.22;;;;;;;0.64;46.98;99874.39;1798698;80;20975;-40
2022/03/06 05:28:41;;;;;;;12.25;5.35;;;;;;;0.65;46.86;99881.27;1798691;80;21046;-40
2022/03/06 05:31:08;;;;;;;13.62;5.95;;;;;;;0.64;46.44;99878.68;1798647;80;21464;-40
2022/03/06 05:33:34;;;;;;;12.82;6.62;;;;;;;0.68;47.01;99873.49;1798859;80;20990;-42
2022/03/06 05:36:00;;;;;;;11.68;6.42;;;;;;;0.65;46.37;99873.50;1798674;80;21022;-40
2022/03/06 05:38:25;;;;;;;14.10;6.97;;;;;;;0.61;46.51;99877.42;1798616;80;21049;-40
2022/03/06 05:40:51;;;;;;;12.30;6.28;;;;;;;0.59;46.41;99879.16;1798863;80;20962;-40
2022/03/06 05:43:17;;;;;;;11.95;6.22;;;;;;;0.61;46.47;99882.16;1798761;80;21026;-40
2022/03/06 05:45:44;;;;;;;14.07;5.95;;;;;;;0.65;46.61;99883.86;1798758;80;21490;-40
2022/03/06 05:48:11;;;;;;;15.50;6.80;;;;;;;0.54;45.69;99879.17;1798816;80;21038;-40
2022/03/06 05:50:37;;;;;;;12.70;6.42;;;;;;;0.58;46.14;99876.98;1798782;80;20959;-40
2022/03/06 05:53:03;;;;;;;8.93;5.58;;;;;;;0.56;46.37;99881.31;1798770;80;20983;-40
2022/03/06 05:55:34;;;;;;;12.70;6.92;;;;;;;0.58;46.45;99876.98;1798840;80;21527;-40
2022/03/06 05:57:57;;;;;;;12.63;5.92;;;;;;;0.62;46.48;99881.72;1797447;80;21025;-40
2022/03/06 06:00:22;;;;;;;10.13;5.22;;;;;;;0.64;46.45;99882.16;1798786;80;20987;-40
2022/03/06 06:02:49;;;;;;;9.10;5.08;;;;;;;0.70;46.40;99876.08;1798677;80;21503;-40
2022/03/06 06:05:19;;;;;;;12.05;5.03;;;;;;;0.74;46.14;99873.45;1798662;80;21475;-40
2022/03/06 06:07:43;;;;;;;9.68;5.55;;;;;;;0.75;46.34;99875.18;1797502;80;20986;-40
2022/03/06 06:10:10;;;;;;;11.05;5.83;;;;;;;0.66;45.76;99874.38;1798758;80;20967;-40
2022/03/06 06:12:37;;;;;;;13.25;6.42;;;;;;;0.64;45.89;99876.09;1798828;80;20998;-40
2022/03/06 06:15:03;;;;;;;15.72;7.83;;;;;;;0.60;46.13;99880.45;1799032;80;21045;-40
2022/03/06 06:17:29;;;;;;;12.17;5.90;;;;;;;0.64;46.06;99879.56;1798848;80;21021;-40
2022/03/06 06:19:55;;;;;;;9.50;5.92;;;;;;;0.55;45.06;99877.03;1798717;80;20974;-40
2022/03/06 06:22:21;;;;;;;9.80;5.53;;;;;;;0.57;45.81;99877.88;1798687;80;21002;-40
2022/03/06 06:24:47;;;;;;;10.45;5.72;;;;;;;0.56;45.63;99873.55;1798677;80;20998;-40
2022/03/06 06:27:13;;;;;;;10.08;5.53;;;;;;;0.56;45.63;99873.55;1798712;80;21018;-40
2022/03/06 06:29:39;;;;;;;8.70;5.15;;;;;;;0.54;45.93;99873.56;1798600;80;20999;-40
2022/03/06 06:32:11;;;;;;;9.78;4.62;;;;;;;0.57;45.49;99877.88;1798514;80;21504;-40
2022/03/06 06:34:34;;;;;;;12.33;5.80;;;;;;;0.55;45.18;99884.80;1797881;80;20959;-40
2022/03/06 06:37:08;;;;;;;12.70;6.37;;;;;;;0.57;45.98;99883.91;1798685;80;21026;-40
2022/03/06 06:39:34;;;;;;;10.45;6.00;;;;;;;0.64;46.00;99876.98;1797669;80;20986;-40
2022/03/06 06:42:01;;;;;;;12.35;6.62;;;;;;;0.70;45.92;99880.81;1798802;80;21468;-40
2022/03/06 06:44:27;;;;;;;10.50;6.00;;;;;;;0.69;45.46;99881.70;1798849;80;20990;-40
2022/03/06 06:46:53;;;;;;;13.18;7.12;;;;;;;0.73;45.18;99879.95;1798613;80;21025;-41
2022/03/06 06:49:19;;;;;;;13.40;7.78;;;;;;;0.81;45.17;99881.20;1798639;80;20990;-40
2022/03/06 06:51:44;;;;;;;12.85;7.53;;;;;;;0.86;45.50;99884.17;1798752;80;20990;-40
2022/03/06 06:54:13;;;;;;;20.10;8.68;;;;;;;0.88;45.10;99886.77;1798720;79;21514;-40
2022/03/06 06:56:38;;;;;;;18.65;10.35;;;;;;;0.93;45.29;99879.83;1798564;80;20946;-40
2022/03/06 06:59:04;;;;;;;11.93;6.58;;;;;;;0.97;45.19;99881.97;1798686;80;21511;-40
2022/03/06 07:01:29;;;;;;;13.62;8.03;;;;;;;1.02;45.48;99882.77;1798637;80;21499;-40
2022/03/06 07:03:55;;;;;;;14.33;7.30;;;;;;;1.05;45.12;99884.05;1797813;80;21060;-41
2022/03/06 07:06:21;;;;;;;11.53;6.22;;;;;;;1.03;44.78;99884.50;1797985;80;20985;-40
2022/03/06 07:08:46;;;;;;;14.65;6.28;;;;;;;0.99;44.37;99878.48;1798658;80;20990;-40
2022/03/06 07:11:12;;;;;;;7.72;5.00;;;;;;;1.06;44.79;99887.93;1798659;79;21029;-40
2022/03/06 07:13:38;;;;;;;14.90;6.28;;;;;;;0.98;44.48;99886.26;1798698;80;20988;-40
2022/03/06 07:16:04;;;;;;;8.83;5.25;;;;;;;0.98;44.58;99883.22;1798696;79;21472;-40
2022/03/06 07:18:30;;;;;;;9.10;5.17;;;;;;;1.06;44.87;99887.08;1798616;80;20971;-40
2022/03/06 07:20:56;;;;;;;8.80;5.50;;;;;;;1.04;44.60;99885.79;1798841;80;20982;-40
2022/03/06 07:23:22;;;;;;;11.38;6.00;;;;;;;0.91;44.32;99880.25;1798712;80;21444;-40
2022/03/06 07:25:48;;;;;;;12.20;5.75;;;;;;;1.01;44.90;99889.69;1798811;80;21021;-40
2022/03/06 07:28:14;;;;;;;9.20;5.45;;;;;;;1.00;44.56;99878.03;1798808;80;20998;-40
2022/03/06 07:30:40;;;;;;;10.82;6.03;;;;;;;1.10;44.98;99880.55;1798767;80;21503;-40
2022/03/06 07:33:06;;;;;;;13.43;7.72;;;;;;;1.18;44.74;99875.75;1798806;80;21002;-40
2022/03/06 07:35:32;;;;;;;12.33;6.58;;;;;;;1.31;44.60;99885.14;1798924;80;20962;-40
2022/03/06 07:37:58;;;;;;;14.13;6.87;;;;;;;1.29;44.27;99880.41;1798734;80;20994;-40
2022/03/06 07:40:24;;;;;;;24.75;10.25;;;;;;;1.37;44.10;99881.66;1798819;80;20990;-40
2022/03/06 07:42:51;;;;;;;22.65;8.15;;;;;;;1.35;44.41;99879.08;1798766;80;21586;-40
2022/03/06 07:45:18;;;;;;;14.10;6.70;;;;;;;1.36;44.51;99882.08;1798834;80;20966;-40
2022/03/06 07:47:45;;;;;;;16.73;8.68;;;;;;;1.33;43.80;99879.53;1799128;80;20971;-39
2022/03/06 07:50:13;;;;;;;10.20;6.28;;;;;;;1.34;44.30;99880.79;1798895;80;20966;-40
2022/03/06 07:52:40;;;;;;;11.83;6.17;;;;;;;1.34;43.84;99874.75;1798802;80;21029;-47
2022/03/06 07:55:07;;;;;;;12.30;7.05;;;;;;;1.49;44.39;99879.83;1799115;80;21472;-40
2022/03/06 07:57:34;;;;;;;16.02;8.63;;;;;;;1.45;43.79;99886.33;1798739;80;20991;-40
2022/03/06 08:00:00;;;;;;;27.15;17.35;;;;;;;1.52;43.72;99876.33;1798723;79;20986;-40
2022/03/06 08:02:26;;;;;;;12.20;6.92;;;;;;;1.63;43.58;99873.20;1798782;79;20978;-40
2022/03/06 08:04:52;;;;;;;10.40;5.95;;;;;;;1.76;43.12;99880.42;1798760;80;20993;-40
2022/03/06 08:07:18;;;;;;;17.07;8.63;;;;;;;1.84;43.21;99873.88;1799010;79;20990;-40
2022/03/06 08:09:44;;;;;;;16.42;9.78;;;;;;;1.93;42.99;99873.78;1798773;80;20991;-40
2022/03/06 08:12:10;;;;;;;16.20;9.03;;;;;;;1.98;43.07;99862.05;1798770;80;20967;-40
2022/03/06 08:14:36;;;;;;;10.80;6.80;;;;;;;2.08;42.70;99863.22;1798711;80;20990;-41
2022/03/06 08:17:02;;;;;;;11.60;6.85;;;;;;;2.08;42.98;99859.33;1798759;80;21033;-41
2022/03/06 08:19:28;;;;;;;14.85;7.78;;;;;;;2.22;42.48;99866.96;1798846;79;20963;-41
2022/03/06 08:21:53;;;;;;;20.77;10.95;;;;;;;2.23;42.26;99862.17;1798765;80;21013;-40
2022/03/06 08:24:19;;;;;;;25.32;11.22;;;;;;;2.20;42.12;99861.35;1798747;80;20963;-41
2022/03/06 08:26:45;;;;;;;9.25;6.67;;;;;;;2.29;42.45;99863.42;1798699;80;21041;-41
2022/03/06 08:29:11;;;;;;;12.33;6.87;;;;;;;2.41;42.54;99865.43;1798767;80;20994;-41
2022/03/06 08:31:37;;;;;;;14.58;8.05;;;;;;;2.43;41.96;99861.08;1801575;79;21069;-41
2022/03/06 08:34:03;;;;;;;9.90;6.75;;;;;;;2.53;42.41;99866.99;1804717;79;21471;-41
2022/03/06 08:36:31;;;;;;;9.45;5.80;;;;;;;2.61;42.54;99869.91;1804699;79;20970;-41
2022/03/06 08:38:57;;;;;;;;;;;;;;;2.61;41.80;99869.06;1807362;79;21017;-40
2022/03/06 08:41:23;;;;;;;7.58;5.40;;;;;;;2.52;39.95;99859.66;1805075;79;20108;-40
2022/03/06 08:43:49;;;;;;;20.17;10.23;;;;;;;2.48;40.37;99865.77;1804673;79;20993;-42
2022/03/06 08:46:14;;;;;;;18.55;7.53;;;;;;;2.46;41.08;99867.53;1804645;79;20998;-41
2022/03/06 08:48:40;;;;;;;11.15;5.40;;;;;;;2.46;40.03;99860.59;1804643;79;21114;-41
2022/03/06 08:51:06;;;;;;;9.30;5.75;;;;;;;2.47;41.06;99858.85;1804760;79;20993;-41
2022/03/06 08:53:33;;;;;;;7.83;5.78;;;;;;;2.44;39.90;99855.02;1804672;79;21021;-41
2022/03/06 08:56:00;;;;;;;13.22;6.20;;;;;;;2.55;40.28;99859.62;1804760;79;21104;-40
2022/03/06 08:58:27;;;;;;;9.68;6.33;;;;;;;2.72;41.03;99862.42;1804538;79;20970;-40
2022/03/06 09:00:53;;;;;;;9.95;5.92;;;;;;;2.63;41.24;99858.22;1804756;79;21456;-40
2022/03/06 09:03:19;;;;;;;6.92;4.87;;;;;;;2.55;40.53;99858.33;1804662;79;20994;-39
2022/03/06 09:05:47;;;;;;;11.38;6.10;;;;;;;2.67;41.40;99861.17;1804638;79;20990;-41
2022/03/06 09:08:13;;;;;;;12.30;5.70;;;;;;;2.53;41.37;99859.20;1804581;79;21033;-40
2022/03/06 09:10:40;;;;;;;22.87;7.80;;;;;;;2.59;40.76;99857.84;1804592;79;20967;-40
2022/03/06 09:13:07;;;;;;;11.53;6.33;;;;;;;2.61;40.78;99855.63;1804753;79;21459;-40
2022/03/06 09:15:34;;;;;;;8.90;6.08;;;;;;;2.66;40.51;99853.84;1804778;79;20986;-40
2022/03/06 09:18:00;;;;;;;11.90;7.08;;;;;;;2.72;41.23;99855.48;1804551;79;21030;-40
2022/03/06 09:20:26;;;;;;;8.80;5.85;;;;;;;2.82;40.98;99855.78;1804847;79;21037;-41
2022/03/06 09:22:54;;;;;;;14.43;7.42;;;;;;;2.87;40.11;99863.07;1804583;79;21002;-40
2022/03/06 09:25:19;;;;;;;7.83;6.05;;;;;;;2.85;39.33;99867.41;1804699;79;20994;-41
2022/03/06 09:27:46;;;;;;;10.23;5.80;;;;;;;2.94;40.61;99862.97;1804556;79;21018;-40
2022/03/06 09:30:13;;;;;;;11.78;7.05;;;;;;;2.84;40.95;99867.45;1804619;79;20971;-40
2022/03/06 09:32:39;;;;;;;10.18;7.37;;;;;;;2.63;40.10;99862.95;1799927;79;21109;-41
2022/03/06 09:35:08;;;;;;;16.67;7.22;;;;;;;2.73;40.83;99860.23;1765637;80;21134;-39
2022/03/06 09:37:34;;;;;;;11.30;7.15;;;;;;;2.63;39.96;99851.72;1798525;80;20994;-41
2022/03/06 09:40:03;;;;;;;10.78;6.92;;;;;;;2.60;39.34;99854.35;1798620;80;20985;-41
2022/03/06 09:42:29;;;;;;;10.50;7.30;;;;;;;2.55;39.42;99853.13;1798691;80;21530;-39
2022/03/06 09:44:55;;;;;;;14.38;8.85;;;;;;;2.60;39.98;99857.83;1798875;80;20991;-40
2022/03/06 09:47:24;;;;;;;14.63;7.67;;;;;;;2.76;40.36;99851.11;1798646;80;20982;-40
2022/03/06 09:49:50;;;;;;;10.28;6.95;;;;;;;2.79;40.45;99852.37;1798667;80;21341;-40
2022/03/06 09:52:16;;;;;;;34.88;16.55;;;;;;;2.65;40.29;99855.15;1798100;80;21037;-40
2022/03/06 09:54:43;;;;;;;14.75;7.95;;;;;;;2.59;40.11;99852.65;1797022;80;21081;-40
2022/03/06 09:57:08;;;;;;;11.05;6.72;;;;;;;2.60;40.70;99855.65;1798803;80;21018;-41
2022/03/06 09:59:34;;;;;;;18.42;11.78;;;;;;;2.59;40.87;99854.80;1798697;80;20994;-40
2022/03/06 10:02:02;;;;;;;11.18;7.80;;;;;;;2.58;40.73;99855.66;1798666;80;20994;-40
2022/03/06 10:04:30;;;;;;;;;;;;;;;2.60;40.11;99847.86;1801464;80;21637;-41
2022/03/06 10:07:15;;;;;;;9.75;7.10;;;;;;;2.58;38.75;99850.92;1798540;79;20136;-40
2022/03/06 10:09:56;;;;;;;9.88;6.70;;;;;;;2.72;40.38;99850.73;1797871;80;20955;-40
2022/03/06 10:12:28;;;;;;;14.03;7.35;;;;;;;2.83;39.93;99854.03;1798686;80;21050;-45
2022/03/06 10:15:04;;;;;;;9.05;6.50;;;;;;;2.90;40.07;99850.47;1798753;80;21495;-42
2022/03/06 10:17:31;;;;;;;11.33;7.10;;;;;;;3.00;40.08;99852.05;1798622;80;20990;-42
2022/03/06 10:20:09;;;;;;;12.15;7.58;;;;;;;3.06;40.16;99848.05;1798857;80;21046;-41
2022/03/06 10:22:38;;;;;;;11.25;7.80;;;;;;;3.01;39.79;99849.85;1798581;80;21022;-41
2022/03/06 10:25:16;;;;;;;9.40;7.08;;;;;;;3.01;39.30;99849.00;1798664;80;21022;-40
2022/03/06 10:27:51;;;;;;;24.75;10.65;;;;;;;2.96;39.85;99845.16;1798623;80;20975;-40
2022/03/06 10:30:34;;;;;;;9.80;6.53;;;;;;;2.88;38.61;99845.29;1798673;80;20978;-40
2022/03/06 10:33:07;;;;;;;9.33;7.05;;;;;;;2.99;39.37;99843.83;1798570;80;21014;-41
2022/03/06 10:35:42;;;;;;;19.15;7.55;;;;;;;2.97;39.32;99840.40;1797802;80;21472;-40
2022/03/06 10:38:35;;;;;;;10.40;6.78;;;;;;;2.85;38.71;99834.93;1797087;80;21472;-41
2022/03/06 10:41:11;;;;;;;10.80;6.53;;;;;;;2.99;39.46;99839.08;1798733;80;21460;-42
2022/03/06 10:43:37;;;;;;;20.25;8.70;;;;;;;3.11;39.32;99832.81;1798783;80;20966;-41
2022/03/06 10:46:21;;;;;;;15.20;7.65;;;;;;;3.20;39.77;99823.15;1798645;79;21075;-41
2022/03/06 10:49:00;;;;;;;21.05;13.13;;;;;;;2.86;38.54;99820.23;1798539;80;20990;-40
2022/03/06 10:51:27;;;;;;;13.95;7.42;;;;;;;2.97;39.49;99820.91;1798628;80;20998;-40
2022/03/06 10:53:55;;;;;;;14.58;7.50;;;;;;;3.05;38.55;99820.78;1798810;80;21589;-41
2022/03/06 10:56:21;;;;;;;16.93;8.65;;;;;;;2.94;39.18;99822.70;1798684;80;20954;-40
2022/03/06 10:58:48;;;;;;;25.27;11.88;;;;;;;2.98;38.53;99813.52;1798883;80;20990;-39
2022/03/06 11:01:15;;;;;;;20.55;9.33;;;;;;;3.13;39.29;99807.23;1799025;80;21492;-40
2022/03/06 11:03:42;;;;;;;38.43;20.70;;;;;;;3.10;38.44;99810.33;1799151;80;20966;-40
2022/03/06 11:06:11;;;;;;;17.32;10.48;;;;;;;3.22;38.76;99807.08;1798923;80;20989;-40
2022/03/06 11:08:38;;;;;;;17.92;11.53;;;;;;;3.20;37.91;99809.27;1798875;80;21416;-41
2022/03/06 11:11:07;;;;;;;25.00;12.35;;;;;;;3.21;37.91;99807.95;1798725;80;20986;-41
2022/03/06 11:13:33;;;;;;;20.23;11.85;;;;;;;3.14;37.90;99806.78;1798856;80;20982;-39
2022/03/06 11:16:01;;;;;;;16.62;10.15;;;;;;;3.30;39.01;99809.55;1798736;80;21033;-39
2022/03/06 11:18:31;;;;;;;11.20;8.25;;;;;;;3.27;38.68;99804.39;1798142;80;21030;-40
2022/03/06 11:21:00;;;;;;;11.65;6.87;;;;;;;3.22;38.75;99806.20;1797524;79;21589;-41
2022/03/06 11:23:35;;;;;;;18.40;9.45;;;;;;;3.02;38.61;99799.62;1798771;80;21033;-40
2022/03/06 11:26:17;;;;;;;13.72;9.33;;;;;;;3.05;38.50;99796.09;1798774;80;21538;-40
2022/03/06 11:29:29;;;;;;;31.65;18.55;;;;;;;3.08;38.95;99794.31;1798881;80;20986;-41
2022/03/06 11:31:58;;;;;;;19.48;12.85;;;;;;;3.04;38.66;99787.45;1796643;80;21511;-40
2022/03/06 11:34:31;;;;;;;41.05;23.42;;;;;;;3.07;38.45;99786.11;1794785;80;21041;-43
2022/03/06 11:36:58;;;;;;;19.90;12.80;;;;;;;2.95;37.53;99788.91;1793910;80;21006;-40